Seward, NE

6:27 AM CST on December 03, 2016 (GMT -0600)
Suhr Lichty Insurance Downtown | | Change Station

Elev 1493 ft 40.91 °N, 97.10 °W | Updated 7 minutes ago

Clear
Clear
25.3 °F
Feels Like 25 °F
N
0.0
Wind Variable Wind from ESE
Gusts 1.0 mph

Today
High -- | Low -- °F
--% Chance of Precip.
Yesterday
High -- | Low -- °F
Precip. -- in
Pressure 30.34 in
Visibility 10.0 miles
Clouds Clear
Windchill 25 °F
Dew Point 23 °F
Humidity 91%
Rainfall 0.00 in
Snow Depth Not available.
7:36 AM 5:00 PM
Waxing Crescent, 14% visible
METAR KLNK 031154Z 00000KT 10SM CLR M04/M06 A3029 RMK AO2 SLP272 I1000 I6000 T10441061 11028 21067 58017
Pressure 30.34 in
Visibility 10.0 miles
Clouds Clear
Windchill 25 °F
Dew Point 23 °F
Humidity 91%
Rainfall 0.00 in
Snow Depth Not available.
7:36 AM 5:00 PM
Waxing Crescent, 14% visible
METAR KLNK 031154Z 00000KT 10SM CLR M04/M06 A3029 RMK AO2 SLP272 I1000 I6000 T10441061 11028 21067 58017

10-Day Weather Forecast

Almanac

Astronomy

Dec. 03, 2016 Rise Set
Actual Time
Civil Twilight
Nautical Twilight
Astronomical Twilight
Moon
Length of Visible Light
Length of Day
Tomorrow will be .
, % of the Moon is Illuminated

Today's Extremes

State Highs State Lows

Community

WunderPhotos

Upload Photos

1,955,441 photos uploaded!

WunderBlog® & News

Nearby

Air Quality

  Air Quality AQ Index Pollutant
Not available.

Snow Depth

Station Depth Elevation

Earthquake Activity

City Distance Mag. Time & Date
Minimum magnitude displayed is 2.5.

Coastal Water Temperatures

Place Temperature

Stations

Nearby Weather Stations

Station Location Temp. Windchill Dew Point Humidity Wind Precip. Elev Updated Type
                   

Watches & Warnings

There are currently no watches in effect.